sensor_id;sensor_type;location;lat;lon;timestamp;P1;durP1;ratioP1;P2;durP2;ratioP2
4794;SDS011;2411;47.060;15.064;2024-03-02T00:01:36;61.67;;;36.53;;
4794;SDS011;2411;47.060;15.064;2024-03-02T00:04:04;68.10;;;37.50;;
4794;SDS011;2411;47.060;15.064;2024-03-02T00:06:33;65.40;;;35.47;;
4794;SDS011;2411;47.060;15.064;2024-03-02T00:09:01;70.93;;;35.00;;
4794;SDS011;2411;47.060;15.064;2024-03-02T00:11:29;71.60;;;36.23;;
4794;SDS011;2411;47.060;15.064;2024-03-02T00:13:56;66.97;;;33.00;;
4794;SDS011;2411;47.060;15.064;2024-03-02T00:16:23;64.67;;;36.10;;
4794;SDS011;2411;47.060;15.064;2024-03-02T00:18:55;63.03;;;34.93;;
4794;SDS011;2411;47.060;15.064;2024-03-02T00:21:24;58.93;;;34.37;;
4794;SDS011;2411;47.060;15.064;2024-03-02T00:23:54;57.40;;;34.53;;
4794;SDS011;2411;47.060;15.064;2024-03-02T00:26:21;68.17;;;33.23;;
4794;SDS011;2411;47.060;15.064;2024-03-02T00:28:48;56.00;;;33.63;;
4794;SDS011;2411;47.060;15.064;2024-03-02T00:31:16;57.67;;;33.23;;
4794;SDS011;2411;47.060;15.064;2024-03-02T00:33:47;60.07;;;33.23;;
4794;SDS011;2411;47.060;15.064;2024-03-02T00:36:15;59.87;;;34.20;;
4794;SDS011;2411;47.060;15.064;2024-03-02T00:38:52;63.53;;;34.87;;
4794;SDS011;2411;47.060;15.064;2024-03-02T00:46:33;66.33;;;34.30;;
4794;SDS011;2411;47.060;15.064;2024-03-02T00:49:25;66.17;;;35.67;;
4794;SDS011;2411;47.060;15.064;2024-03-02T00:51:53;68.03;;;36.50;;
4794;SDS011;2411;47.060;15.064;2024-03-02T00:54:22;62.63;;;36.23;;
4794;SDS011;2411;47.060;15.064;2024-03-02T00:56:53;76.47;;;37.23;;
4794;SDS011;2411;47.060;15.064;2024-03-02T00:59:23;63.63;;;35.57;;
4794;SDS011;2411;47.060;15.064;2024-03-02T01:01:50;61.03;;;34.67;;
4794;SDS011;2411;47.060;15.064;2024-03-02T01:04:18;66.53;;;33.67;;
4794;SDS011;2411;47.060;15.064;2024-03-02T01:06:45;58.10;;;34.90;;
4794;SDS011;2411;47.060;15.064;2024-03-02T01:09:13;60.67;;;32.47;;
4794;SDS011;2411;47.060;15.064;2024-03-02T01:11:40;59.67;;;33.10;;
4794;SDS011;2411;47.060;15.064;2024-03-02T01:14:07;66.60;;;36.13;;
4794;SDS011;2411;47.060;15.064;2024-03-02T01:16:34;60.90;;;33.43;;
4794;SDS011;2411;47.060;15.064;2024-03-02T01:19:01;62.57;;;33.80;;
4794;SDS011;2411;47.060;15.064;2024-03-02T01:21:28;59.60;;;33.53;;
4794;SDS011;2411;47.060;15.064;2024-03-02T01:23:56;60.27;;;32.93;;
4794;SDS011;2411;47.060;15.064;2024-03-02T01:26:23;63.67;;;32.83;;
4794;SDS011;2411;47.060;15.064;2024-03-02T01:28:50;62.33;;;35.10;;
4794;SDS011;2411;47.060;15.064;2024-03-02T01:31:17;56.20;;;32.17;;
4794;SDS011;2411;47.060;15.064;2024-03-02T01:33:44;54.50;;;32.00;;
4794;SDS011;2411;47.060;15.064;2024-03-02T01:36:11;60.50;;;34.73;;
4794;SDS011;2411;47.060;15.064;2024-03-02T01:38:38;56.07;;;32.43;;
4794;SDS011;2411;47.060;15.064;2024-03-02T01:41:05;57.57;;;31.83;;
4794;SDS011;2411;47.060;15.064;2024-03-02T01:43:33;59.93;;;33.40;;
4794;SDS011;2411;47.060;15.064;2024-03-02T01:46:02;60.03;;;32.13;;
4794;SDS011;2411;47.060;15.064;2024-03-02T01:48:30;58.03;;;32.10;;
4794;SDS011;2411;47.060;15.064;2024-03-02T01:50:57;57.67;;;32.23;;
4794;SDS011;2411;47.060;15.064;2024-03-02T01:53:24;50.57;;;29.90;;
4794;SDS011;2411;47.060;15.064;2024-03-02T01:55:51;60.33;;;33.10;;
4794;SDS011;2411;47.060;15.064;2024-03-02T01:58:18;55.80;;;31.37;;
4794;SDS011;2411;47.060;15.064;2024-03-02T02:00:45;53.80;;;31.20;;
4794;SDS011;2411;47.060;15.064;2024-03-02T02:03:12;54.03;;;31.93;;
4794;SDS011;2411;47.060;15.064;2024-03-02T02:05:41;51.90;;;31.20;;
4794;SDS011;2411;47.060;15.064;2024-03-02T02:08:08;49.40;;;29.33;;
4794;SDS011;2411;47.060;15.064;2024-03-02T02:10:36;52.80;;;30.50;;
4794;SDS011;2411;47.060;15.064;2024-03-02T02:13:03;52.87;;;29.90;;
4794;SDS011;2411;47.060;15.064;2024-03-02T02:15:30;48.67;;;28.80;;
4794;SDS011;2411;47.060;15.064;2024-03-02T02:17:58;58.07;;;29.47;;
4794;SDS011;2411;47.060;15.064;2024-03-02T02:20:26;49.70;;;28.93;;
4794;SDS011;2411;47.060;15.064;2024-03-02T02:23:03;49.17;;;27.43;;
4794;SDS011;2411;47.060;15.064;2024-03-02T02:25:32;53.23;;;30.97;;
4794;SDS011;2411;47.060;15.064;2024-03-02T02:27:59;51.87;;;29.47;;
4794;SDS011;2411;47.060;15.064;2024-03-02T02:30:29;59.97;;;29.60;;
4794;SDS011;2411;47.060;15.064;2024-03-02T02:32:58;49.23;;;28.23;;
4794;SDS011;2411;47.060;15.064;2024-03-02T02:35:26;55.83;;;30.20;;
4794;SDS011;2411;47.060;15.064;2024-03-02T02:37:53;56.27;;;31.17;;
4794;SDS011;2411;47.060;15.064;2024-03-02T02:40:22;56.70;;;30.67;;
4794;SDS011;2411;47.060;15.064;2024-03-02T02:42:49;44.40;;;27.40;;
4794;SDS011;2411;47.060;15.064;2024-03-02T02:45:19;57.13;;;30.00;;
4794;SDS011;2411;47.060;15.064;2024-03-02T02:47:46;55.93;;;28.03;;
4794;SDS011;2411;47.060;15.064;2024-03-02T02:50:13;57.73;;;28.83;;
4794;SDS011;2411;47.060;15.064;2024-03-02T02:52:41;55.43;;;30.60;;
4794;SDS011;2411;47.060;15.064;2024-03-02T02:55:09;51.43;;;29.03;;
4794;SDS011;2411;47.060;15.064;2024-03-02T02:57:38;58.67;;;30.27;;
4794;SDS011;2411;47.060;15.064;2024-03-02T03:00:10;61.57;;;32.23;;
4794;SDS011;2411;47.060;15.064;2024-03-02T03:02:43;60.40;;;32.33;;
4794;SDS011;2411;47.060;15.064;2024-03-02T03:05:14;44.03;;;27.20;;
4794;SDS011;2411;47.060;15.064;2024-03-02T03:07:42;54.57;;;28.57;;
4794;SDS011;2411;47.060;15.064;2024-03-02T03:10:11;42.37;;;26.53;;
4794;SDS011;2411;47.060;15.064;2024-03-02T03:12:40;44.90;;;27.30;;
4794;SDS011;2411;47.060;15.064;2024-03-02T03:15:09;42.30;;;25.23;;
4794;SDS011;2411;47.060;15.064;2024-03-02T03:17:38;49.97;;;24.70;;
4794;SDS011;2411;47.060;15.064;2024-03-02T03:20:05;39.80;;;24.70;;
4794;SDS011;2411;47.060;15.064;2024-03-02T03:22:37;35.30;;;22.70;;
4794;SDS011;2411;47.060;15.064;2024-03-02T03:25:04;35.00;;;22.80;;
4794;SDS011;2411;47.060;15.064;2024-03-02T03:27:32;34.00;;;20.70;;
4794;SDS011;2411;47.060;15.064;2024-03-02T03:29:59;38.30;;;21.97;;
4794;SDS011;2411;47.060;15.064;2024-03-02T03:32:26;41.10;;;23.87;;
4794;SDS011;2411;47.060;15.064;2024-03-02T03:34:53;37.23;;;24.30;;
4794;SDS011;2411;47.060;15.064;2024-03-02T03:37:20;35.80;;;22.83;;
4794;SDS011;2411;47.060;15.064;2024-03-02T03:39:47;39.33;;;24.83;;
4794;SDS011;2411;47.060;15.064;2024-03-02T03:42:14;33.47;;;21.47;;
4794;SDS011;2411;47.060;15.064;2024-03-02T03:44:42;36.43;;;22.70;;
4794;SDS011;2411;47.060;15.064;2024-03-02T03:47:09;32.47;;;22.60;;
4794;SDS011;2411;47.060;15.064;2024-03-02T03:49:36;31.20;;;20.20;;
4794;SDS011;2411;47.060;15.064;2024-03-02T03:52:03;36.80;;;22.13;;
4794;SDS011;2411;47.060;15.064;2024-03-02T03:54:31;33.30;;;18.27;;
4794;SDS011;2411;47.060;15.064;2024-03-02T03:56:58;35.70;;;20.50;;
4794;SDS011;2411;47.060;15.064;2024-03-02T03:59:25;32.03;;;19.80;;
4794;SDS011;2411;47.060;15.064;2024-03-02T04:01:52;33.07;;;20.67;;
4794;SDS011;2411;47.060;15.064;2024-03-02T04:04:19;27.57;;;19.40;;
4794;SDS011;2411;47.060;15.064;2024-03-02T04:06:47;31.60;;;19.07;;
4794;SDS011;2411;47.060;15.064;2024-03-02T04:09:14;30.03;;;19.43;;
4794;SDS011;2411;47.060;15.064;2024-03-02T04:11:41;33.20;;;22.60;;
4794;SDS011;2411;47.060;15.064;2024-03-02T04:14:08;31.57;;;20.63;;
4794;SDS011;2411;47.060;15.064;2024-03-02T04:16:35;38.50;;;21.30;;
4794;SDS011;2411;47.060;15.064;2024-03-02T04:19:02;29.83;;;19.70;;
4794;SDS011;2411;47.060;15.064;2024-03-02T04:21:30;31.47;;;20.43;;
4794;SDS011;2411;47.060;15.064;2024-03-02T04:23:57;31.83;;;18.93;;
4794;SDS011;2411;47.060;15.064;2024-03-02T04:26:26;28.33;;;19.57;;
4794;SDS011;2411;47.060;15.064;2024-03-02T04:28:53;27.67;;;19.13;;
4794;SDS011;2411;47.060;15.064;2024-03-02T04:31:20;28.33;;;18.90;;
4794;SDS011;2411;47.060;15.064;2024-03-02T04:33:48;26.27;;;18.37;;
4794;SDS011;2411;47.060;15.064;2024-03-02T04:36:15;34.00;;;21.13;;
4794;SDS011;2411;47.060;15.064;2024-03-02T04:38:42;29.83;;;19.93;;
4794;SDS011;2411;47.060;15.064;2024-03-02T04:41:09;28.87;;;19.60;;
4794;SDS011;2411;47.060;15.064;2024-03-02T04:43:36;28.67;;;18.80;;
4794;SDS011;2411;47.060;15.064;2024-03-02T04:46:04;26.97;;;18.97;;
4794;SDS011;2411;47.060;15.064;2024-03-02T04:48:33;28.47;;;18.83;;
4794;SDS011;2411;47.060;15.064;2024-03-02T04:51:00;28.43;;;18.40;;
4794;SDS011;2411;47.060;15.064;2024-03-02T04:53:27;24.87;;;18.13;;
4794;SDS011;2411;47.060;15.064;2024-03-02T04:55:54;23.93;;;17.13;;
4794;SDS011;2411;47.060;15.064;2024-03-02T04:58:44;23.20;;;16.17;;
4794;SDS011;2411;47.060;15.064;2024-03-02T05:01:12;23.90;;;16.10;;
4794;SDS011;2411;47.060;15.064;2024-03-02T05:03:39;22.30;;;15.00;;
4794;SDS011;2411;47.060;15.064;2024-03-02T05:06:06;15.20;;;11.50;;
4794;SDS011;2411;47.060;15.064;2024-03-02T05:08:33;13.83;;;11.03;;
4794;SDS011;2411;47.060;15.064;2024-03-02T05:11:00;11.93;;;10.00;;
4794;SDS011;2411;47.060;15.064;2024-03-02T05:13:47;13.97;;;10.37;;
4794;SDS011;2411;47.060;15.064;2024-03-02T05:16:14;13.30;;;10.33;;
4794;SDS011;2411;47.060;15.064;2024-03-02T05:18:41;16.17;;;10.13;;
4794;SDS011;2411;47.060;15.064;2024-03-02T05:21:08;16.80;;;11.27;;
4794;SDS011;2411;47.060;15.064;2024-03-02T05:23:35;12.37;;;9.90;;
4794;SDS011;2411;47.060;15.064;2024-03-02T05:26:03;14.10;;;10.00;;
4794;SDS011;2411;47.060;15.064;2024-03-02T05:28:30;15.57;;;11.17;;
4794;SDS011;2411;47.060;15.064;2024-03-02T05:30:57;12.57;;;9.27;;
4794;SDS011;2411;47.060;15.064;2024-03-02T05:33:24;12.33;;;9.03;;
4794;SDS011;2411;47.060;15.064;2024-03-02T05:35:52;12.60;;;10.00;;
4794;SDS011;2411;47.060;15.064;2024-03-02T05:38:19;15.27;;;10.70;;
4794;SDS011;2411;47.060;15.064;2024-03-02T05:40:48;16.57;;;11.33;;
4794;SDS011;2411;47.060;15.064;2024-03-02T05:43:15;18.43;;;12.20;;
4794;SDS011;2411;47.060;15.064;2024-03-02T05:45:42;16.33;;;10.70;;
4794;SDS011;2411;47.060;15.064;2024-03-02T05:48:09;19.33;;;12.27;;
4794;SDS011;2411;47.060;15.064;2024-03-02T05:50:36;16.00;;;13.00;;
4794;SDS011;2411;47.060;15.064;2024-03-02T05:53:04;17.50;;;11.00;;
4794;SDS011;2411;47.060;15.064;2024-03-02T05:55:31;15.67;;;11.00;;
4794;SDS011;2411;47.060;15.064;2024-03-02T05:57:58;14.37;;;10.57;;
4794;SDS011;2411;47.060;15.064;2024-03-02T06:00:43;12.53;;;10.30;;
4794;SDS011;2411;47.060;15.064;2024-03-02T06:03:11;13.50;;;9.77;;
4794;SDS011;2411;47.060;15.064;2024-03-02T06:05:38;14.43;;;8.63;;
4794;SDS011;2411;47.060;15.064;2024-03-02T06:08:05;12.60;;;9.93;;
4794;SDS011;2411;47.060;15.064;2024-03-02T06:10:32;12.20;;;9.87;;
4794;SDS011;2411;47.060;15.064;2024-03-02T06:13:00;11.83;;;7.93;;
4794;SDS011;2411;47.060;15.064;2024-03-02T06:15:27;11.83;;;8.67;;
4794;SDS011;2411;47.060;15.064;2024-03-02T06:17:54;7.60;;;6.90;;
4794;SDS011;2411;47.060;15.064;2024-03-02T06:20:21;9.43;;;7.07;;
4794;SDS011;2411;47.060;15.064;2024-03-02T06:22:48;10.07;;;7.33;;
4794;SDS011;2411;47.060;15.064;2024-03-02T06:25:15;8.60;;;6.83;;
4794;SDS011;2411;47.060;15.064;2024-03-02T06:27:42;7.53;;;5.50;;
4794;SDS011;2411;47.060;15.064;2024-03-02T06:30:10;7.50;;;6.40;;
4794;SDS011;2411;47.060;15.064;2024-03-02T06:32:37;9.40;;;6.90;;
4794;SDS011;2411;47.060;15.064;2024-03-02T06:35:04;6.80;;;5.97;;
4794;SDS011;2411;47.060;15.064;2024-03-02T06:37:34;7.53;;;6.50;;
4794;SDS011;2411;47.060;15.064;2024-03-02T06:40:01;9.00;;;7.10;;
4794;SDS011;2411;47.060;15.064;2024-03-02T06:42:29;7.07;;;6.40;;
4794;SDS011;2411;47.060;15.064;2024-03-02T06:45:00;8.73;;;6.43;;
4794;SDS011;2411;47.060;15.064;2024-03-02T06:47:28;9.50;;;6.50;;
4794;SDS011;2411;47.060;15.064;2024-03-02T06:49:56;8.10;;;6.97;;
4794;SDS011;2411;47.060;15.064;2024-03-02T06:52:24;8.37;;;7.30;;
4794;SDS011;2411;47.060;15.064;2024-03-02T06:54:52;10.60;;;7.10;;
4794;SDS011;2411;47.060;15.064;2024-03-02T06:57:19;7.33;;;6.53;;
4794;SDS011;2411;47.060;15.064;2024-03-02T06:59:47;9.33;;;7.43;;
4794;SDS011;2411;47.060;15.064;2024-03-02T07:02:17;10.80;;;8.57;;
4794;SDS011;2411;47.060;15.064;2024-03-02T07:04:44;11.30;;;8.67;;
4794;SDS011;2411;47.060;15.064;2024-03-02T07:07:12;11.53;;;7.73;;
4794;SDS011;2411;47.060;15.064;2024-03-02T07:09:39;12.50;;;9.30;;
4794;SDS011;2411;47.060;15.064;2024-03-02T07:12:06;10.20;;;8.30;;
4794;SDS011;2411;47.060;15.064;2024-03-02T07:14:34;10.10;;;8.37;;
4794;SDS011;2411;47.060;15.064;2024-03-02T07:17:20;10.10;;;8.27;;
4794;SDS011;2411;47.060;15.064;2024-03-02T07:19:47;13.57;;;8.70;;
4794;SDS011;2411;47.060;15.064;2024-03-02T07:22:14;9.57;;;8.57;;
4794;SDS011;2411;47.060;15.064;2024-03-02T07:24:44;12.00;;;7.73;;
4794;SDS011;2411;47.060;15.064;2024-03-02T07:27:12;10.50;;;7.53;;
4794;SDS011;2411;47.060;15.064;2024-03-02T07:29:40;10.23;;;9.00;;
4794;SDS011;2411;47.060;15.064;2024-03-02T07:32:07;10.97;;;8.43;;
4794;SDS011;2411;47.060;15.064;2024-03-02T07:34:35;11.13;;;9.40;;
4794;SDS011;2411;47.060;15.064;2024-03-02T07:37:04;9.13;;;8.20;;
4794;SDS011;2411;47.060;15.064;2024-03-02T07:39:32;9.13;;;8.13;;
4794;SDS011;2411;47.060;15.064;2024-03-02T07:41:59;9.00;;;8.07;;
4794;SDS011;2411;47.060;15.064;2024-03-02T07:44:27;9.70;;;7.87;;
4794;SDS011;2411;47.060;15.064;2024-03-02T07:46:54;10.90;;;8.27;;
4794;SDS011;2411;47.060;15.064;2024-03-02T07:49:21;11.00;;;9.13;;
4794;SDS011;2411;47.060;15.064;2024-03-02T07:51:48;9.27;;;8.20;;
4794;SDS011;2411;47.060;15.064;2024-03-02T07:54:15;11.50;;;8.47;;
4794;SDS011;2411;47.060;15.064;2024-03-02T07:56:43;13.00;;;9.43;;
4794;SDS011;2411;47.060;15.064;2024-03-02T07:59:11;11.00;;;9.10;;
4794;SDS011;2411;47.060;15.064;2024-03-02T08:01:38;11.10;;;8.10;;
4794;SDS011;2411;47.060;15.064;2024-03-02T08:04:05;11.83;;;8.90;;
4794;SDS011;2411;47.060;15.064;2024-03-02T08:06:33;15.33;;;9.30;;
4794;SDS011;2411;47.060;15.064;2024-03-02T08:09:00;13.33;;;10.00;;
4794;SDS011;2411;47.060;15.064;2024-03-02T08:11:27;13.30;;;10.53;;
4794;SDS011;2411;47.060;15.064;2024-03-02T08:13:55;12.93;;;9.90;;
4794;SDS011;2411;47.060;15.064;2024-03-02T08:16:22;17.60;;;12.03;;
4794;SDS011;2411;47.060;15.064;2024-03-02T08:18:50;15.77;;;11.03;;
4794;SDS011;2411;47.060;15.064;2024-03-02T08:21:18;14.43;;;9.60;;
4794;SDS011;2411;47.060;15.064;2024-03-02T08:23:46;11.33;;;9.23;;
4794;SDS011;2411;47.060;15.064;2024-03-02T08:26:13;12.20;;;8.67;;
4794;SDS011;2411;47.060;15.064;2024-03-02T08:28:40;10.60;;;7.20;;
4794;SDS011;2411;47.060;15.064;2024-03-02T08:31:07;10.97;;;7.77;;
4794;SDS011;2411;47.060;15.064;2024-03-02T08:33:35;15.97;;;10.70;;
4794;SDS011;2411;47.060;15.064;2024-03-02T08:36:04;11.20;;;8.90;;
4794;SDS011;2411;47.060;15.064;2024-03-02T08:38:32;12.37;;;8.50;;
4794;SDS011;2411;47.060;15.064;2024-03-02T08:40:59;9.87;;;8.30;;
4794;SDS011;2411;47.060;15.064;2024-03-02T08:43:27;8.93;;;6.97;;
4794;SDS011;2411;47.060;15.064;2024-03-02T08:45:54;10.43;;;8.10;;
4794;SDS011;2411;47.060;15.064;2024-03-02T08:48:21;15.43;;;9.57;;
4794;SDS011;2411;47.060;15.064;2024-03-02T08:50:48;11.53;;;7.67;;
4794;SDS011;2411;47.060;15.064;2024-03-02T08:53:15;9.20;;;7.93;;
4794;SDS011;2411;47.060;15.064;2024-03-02T08:55:45;11.17;;;8.03;;
4794;SDS011;2411;47.060;15.064;2024-03-02T08:58:13;10.90;;;8.73;;
4794;SDS011;2411;47.060;15.064;2024-03-02T09:00:40;17.20;;;10.13;;
4794;SDS011;2411;47.060;15.064;2024-03-02T09:03:08;14.70;;;10.17;;
4794;SDS011;2411;47.060;15.064;2024-03-02T09:05:35;10.40;;;9.33;;
4794;SDS011;2411;47.060;15.064;2024-03-02T09:08:03;13.27;;;9.40;;
4794;SDS011;2411;47.060;15.064;2024-03-02T09:10:30;12.83;;;9.10;;
4794;SDS011;2411;47.060;15.064;2024-03-02T09:12:59;12.40;;;9.43;;
4794;SDS011;2411;47.060;15.064;2024-03-02T09:15:27;12.93;;;9.20;;
4794;SDS011;2411;47.060;15.064;2024-03-02T09:17:54;11.83;;;7.97;;
4794;SDS011;2411;47.060;15.064;2024-03-02T09:20:21;11.53;;;9.63;;
4794;SDS011;2411;47.060;15.064;2024-03-02T09:22:49;10.00;;;8.40;;
4794;SDS011;2411;47.060;15.064;2024-03-02T09:25:16;11.43;;;8.53;;
4794;SDS011;2411;47.060;15.064;2024-03-02T09:27:43;15.20;;;8.70;;
4794;SDS011;2411;47.060;15.064;2024-03-02T09:30:10;11.60;;;7.73;;
4794;SDS011;2411;47.060;15.064;2024-03-02T09:32:40;12.30;;;8.97;;
4794;SDS011;2411;47.060;15.064;2024-03-02T09:35:07;13.50;;;9.23;;
4794;SDS011;2411;47.060;15.064;2024-03-02T09:37:35;10.47;;;8.40;;
4794;SDS011;2411;47.060;15.064;2024-03-02T09:40:02;13.00;;;10.00;;
4794;SDS011;2411;47.060;15.064;2024-03-02T09:42:30;15.13;;;9.40;;
4794;SDS011;2411;47.060;15.064;2024-03-02T09:44:58;11.60;;;8.00;;
4794;SDS011;2411;47.060;15.064;2024-03-02T09:47:26;10.83;;;7.47;;
4794;SDS011;2411;47.060;15.064;2024-03-02T09:49:53;17.03;;;9.30;;
4794;SDS011;2411;47.060;15.064;2024-03-02T09:52:22;12.60;;;8.37;;
4794;SDS011;2411;47.060;15.064;2024-03-02T09:54:50;11.47;;;6.93;;
4794;SDS011;2411;47.060;15.064;2024-03-02T09:57:17;8.63;;;7.03;;
4794;SDS011;2411;47.060;15.064;2024-03-02T09:59:44;8.43;;;7.53;;
4794;SDS011;2411;47.060;15.064;2024-03-02T10:02:11;10.03;;;6.37;;
4794;SDS011;2411;47.060;15.064;2024-03-02T10:04:39;10.50;;;6.20;;
4794;SDS011;2411;47.060;15.064;2024-03-02T10:07:16;11.13;;;7.67;;
4794;SDS011;2411;47.060;15.064;2024-03-02T10:09:45;14.17;;;8.50;;
4794;SDS011;2411;47.060;15.064;2024-03-02T10:12:14;9.20;;;7.33;;
4794;SDS011;2411;47.060;15.064;2024-03-02T10:14:42;11.50;;;7.30;;
4794;SDS011;2411;47.060;15.064;2024-03-02T10:17:13;12.10;;;8.57;;
4794;SDS011;2411;47.060;15.064;2024-03-02T10:19:42;11.47;;;8.60;;
4794;SDS011;2411;47.060;15.064;2024-03-02T10:22:09;9.57;;;7.90;;
4794;SDS011;2411;47.060;15.064;2024-03-02T10:24:41;12.43;;;8.97;;
4794;SDS011;2411;47.060;15.064;2024-03-02T10:27:17;12.00;;;9.17;;
4794;SDS011;2411;47.060;15.064;2024-03-02T10:29:54;11.77;;;8.37;;
4794;SDS011;2411;47.060;15.064;2024-03-02T10:32:22;11.97;;;7.80;;
4794;SDS011;2411;47.060;15.064;2024-03-02T10:34:49;9.50;;;8.00;;
4794;SDS011;2411;47.060;15.064;2024-03-02T10:37:17;11.53;;;7.43;;
4794;SDS011;2411;47.060;15.064;2024-03-02T10:39:45;8.50;;;6.83;;
4794;SDS011;2411;47.060;15.064;2024-03-02T10:42:14;7.97;;;6.47;;
4794;SDS011;2411;47.060;15.064;2024-03-02T10:44:41;9.67;;;6.63;;
4794;SDS011;2411;47.060;15.064;2024-03-02T10:47:09;9.67;;;6.50;;
4794;SDS011;2411;47.060;15.064;2024-03-02T10:49:41;14.53;;;6.30;;
4794;SDS011;2411;47.060;15.064;2024-03-02T10:52:11;13.33;;;7.23;;
4794;SDS011;2411;47.060;15.064;2024-03-02T10:54:39;10.33;;;7.10;;
4794;SDS011;2411;47.060;15.064;2024-03-02T10:57:07;7.03;;;6.30;;
4794;SDS011;2411;47.060;15.064;2024-03-02T10:59:42;9.17;;;6.90;;
4794;SDS011;2411;47.060;15.064;2024-03-02T11:02:18;9.00;;;6.27;;
4794;SDS011;2411;47.060;15.064;2024-03-02T11:04:48;9.50;;;6.67;;
4794;SDS011;2411;47.060;15.064;2024-03-02T11:07:20;6.67;;;5.57;;
4794;SDS011;2411;47.060;15.064;2024-03-02T11:09:52;7.50;;;6.60;;
4794;SDS011;2411;47.060;15.064;2024-03-02T11:12:27;12.10;;;6.50;;
4794;SDS011;2411;47.060;15.064;2024-03-02T11:14:56;7.83;;;6.10;;
4794;SDS011;2411;47.060;15.064;2024-03-02T11:17:24;7.20;;;6.20;;
4794;SDS011;2411;47.060;15.064;2024-03-02T11:19:52;8.07;;;5.93;;
4794;SDS011;2411;47.060;15.064;2024-03-02T11:22:19;6.77;;;5.17;;
4794;SDS011;2411;47.060;15.064;2024-03-02T11:24:48;6.43;;;5.27;;
4794;SDS011;2411;47.060;15.064;2024-03-02T11:27:58;7.13;;;5.70;;
4794;SDS011;2411;47.060;15.064;2024-03-02T11:33:02;8.93;;;6.70;;
4794;SDS011;2411;47.060;15.064;2024-03-02T11:35:41;13.70;;;6.37;;
4794;SDS011;2411;47.060;15.064;2024-03-02T11:38:10;10.70;;;5.70;;
4794;SDS011;2411;47.060;15.064;2024-03-02T11:40:38;11.00;;;6.20;;
4794;SDS011;2411;47.060;15.064;2024-03-02T11:43:06;8.50;;;4.70;;
4794;SDS011;2411;47.060;15.064;2024-03-02T11:45:37;7.17;;;5.37;;
4794;SDS011;2411;47.060;15.064;2024-03-02T11:48:11;4.90;;;2.80;;
4794;SDS011;2411;47.060;15.064;2024-03-02T11:53:13;2.50;;;1.50;;
4794;SDS011;2411;47.060;15.064;2024-03-02T11:55:40;2.70;;;2.10;;
4794;SDS011;2411;47.060;15.064;2024-03-02T11:58:10;1.50;;;1.40;;
4794;SDS011;2411;47.060;15.064;2024-03-02T12:00:37;2.20;;;1.17;;
4794;SDS011;2411;47.060;15.064;2024-03-02T12:03:05;2.10;;;1.17;;
4794;SDS011;2411;47.060;15.064;2024-03-02T12:05:34;1.87;;;1.77;;
4794;SDS011;2411;47.060;15.064;2024-03-02T12:08:03;2.70;;;1.53;;
4794;SDS011;2411;47.060;15.064;2024-03-02T12:10:31;3.23;;;1.90;;
4794;SDS011;2411;47.060;15.064;2024-03-02T12:13:05;7.37;;;4.23;;
4794;SDS011;2411;47.060;15.064;2024-03-02T12:15:34;13.13;;;6.93;;
4794;SDS011;2411;47.060;15.064;2024-03-02T12:18:06;9.23;;;7.30;;
4794;SDS011;2411;47.060;15.064;2024-03-02T12:20:33;9.00;;;7.37;;
4794;SDS011;2411;47.060;15.064;2024-03-02T12:23:01;10.77;;;8.07;;
4794;SDS011;2411;47.060;15.064;2024-03-02T12:25:31;12.00;;;7.17;;
4794;SDS011;2411;47.060;15.064;2024-03-02T12:28:02;12.40;;;8.27;;
4794;SDS011;2411;47.060;15.064;2024-03-02T12:30:30;9.50;;;6.80;;
4794;SDS011;2411;47.060;15.064;2024-03-02T12:33:02;8.83;;;6.80;;
4794;SDS011;2411;47.060;15.064;2024-03-02T12:35:29;16.10;;;8.70;;
4794;SDS011;2411;47.060;15.064;2024-03-02T12:37:56;14.47;;;8.50;;
4794;SDS011;2411;47.060;15.064;2024-03-02T12:40:23;11.83;;;7.60;;
4794;SDS011;2411;47.060;15.064;2024-03-02T12:42:50;12.90;;;8.43;;
4794;SDS011;2411;47.060;15.064;2024-03-02T12:45:18;10.87;;;8.60;;
4794;SDS011;2411;47.060;15.064;2024-03-02T12:47:51;11.97;;;8.33;;
4794;SDS011;2411;47.060;15.064;2024-03-02T12:50:20;10.60;;;8.07;;
4794;SDS011;2411;47.060;15.064;2024-03-02T12:52:54;10.63;;;7.50;;
4794;SDS011;2411;47.060;15.064;2024-03-02T12:55:22;13.00;;;7.80;;
4794;SDS011;2411;47.060;15.064;2024-03-02T12:57:51;14.57;;;7.60;;
4794;SDS011;2411;47.060;15.064;2024-03-02T13:00:19;8.37;;;7.47;;
4794;SDS011;2411;47.060;15.064;2024-03-02T13:02:48;13.73;;;7.67;;
4794;SDS011;2411;47.060;15.064;2024-03-02T13:05:18;14.73;;;7.73;;
4794;SDS011;2411;47.060;15.064;2024-03-02T13:07:47;13.03;;;7.03;;
4794;SDS011;2411;47.060;15.064;2024-03-02T13:10:15;9.40;;;6.50;;
4794;SDS011;2411;47.060;15.064;2024-03-02T13:12:43;8.87;;;7.13;;
4794;SDS011;2411;47.060;15.064;2024-03-02T13:15:11;7.43;;;5.97;;
4794;SDS011;2411;47.060;15.064;2024-03-02T13:17:44;11.80;;;6.70;;
4794;SDS011;2411;47.060;15.064;2024-03-02T13:20:13;15.23;;;6.77;;
4794;SDS011;2411;47.060;15.064;2024-03-02T13:22:41;9.47;;;6.27;;
4794;SDS011;2411;47.060;15.064;2024-03-02T13:25:09;8.43;;;6.10;;
4794;SDS011;2411;47.060;15.064;2024-03-02T13:27:38;10.87;;;6.97;;
4794;SDS011;2411;47.060;15.064;2024-03-02T13:30:06;4.33;;;3.33;;
4794;SDS011;2411;47.060;15.064;2024-03-02T13:32:36;3.43;;;2.80;;
4794;SDS011;2411;47.060;15.064;2024-03-02T13:35:03;1.43;;;1.30;;
4794;SDS011;2411;47.060;15.064;2024-03-02T13:37:30;1.53;;;1.43;;
4794;SDS011;2411;47.060;15.064;2024-03-02T13:39:57;2.10;;;1.10;;
4794;SDS011;2411;47.060;15.064;2024-03-02T13:42:25;1.83;;;1.20;;
4794;SDS011;2411;47.060;15.064;2024-03-02T13:44:52;1.30;;;1.20;;
4794;SDS011;2411;47.060;15.064;2024-03-02T13:47:19;1.03;;;0.90;;
4794;SDS011;2411;47.060;15.064;2024-03-02T13:49:47;6.73;;;1.43;;
4794;SDS011;2411;47.060;15.064;2024-03-02T13:52:15;1.60;;;1.50;;
4794;SDS011;2411;47.060;15.064;2024-03-02T13:54:46;2.60;;;1.20;;
4794;SDS011;2411;47.060;15.064;2024-03-02T13:57:14;2.85;;;1.10;;
4794;SDS011;2411;47.060;15.064;2024-03-02T13:59:42;1.20;;;1.10;;
4794;SDS011;2411;47.060;15.064;2024-03-02T14:02:10;1.87;;;1.33;;
4794;SDS011;2411;47.060;15.064;2024-03-02T14:04:39;2.50;;;1.30;;
4794;SDS011;2411;47.060;15.064;2024-03-02T14:07:06;2.00;;;1.00;;
4794;SDS011;2411;47.060;15.064;2024-03-02T14:09:34;2.30;;;1.60;;
4794;SDS011;2411;47.060;15.064;2024-03-02T14:12:01;1.67;;;1.57;;
4794;SDS011;2411;47.060;15.064;2024-03-02T14:14:29;3.43;;;1.70;;
4794;SDS011;2411;47.060;15.064;2024-03-02T14:16:56;1.50;;;1.40;;
4794;SDS011;2411;47.060;15.064;2024-03-02T14:19:27;1.60;;;1.50;;
4794;SDS011;2411;47.060;15.064;2024-03-02T14:21:54;3.50;;;1.40;;
4794;SDS011;2411;47.060;15.064;2024-03-02T14:24:21;4.03;;;1.43;;
4794;SDS011;2411;47.060;15.064;2024-03-02T14:26:52;1.80;;;1.70;;
4794;SDS011;2411;47.060;15.064;2024-03-02T14:29:31;1.50;;;1.40;;
4794;SDS011;2411;47.060;15.064;2024-03-02T14:32:05;2.00;;;1.40;;
4794;SDS011;2411;47.060;15.064;2024-03-02T14:34:33;2.00;;;1.90;;
4794;SDS011;2411;47.060;15.064;2024-03-02T14:37:02;5.37;;;1.60;;
4794;SDS011;2411;47.060;15.064;2024-03-02T14:39:29;3.33;;;2.03;;
4794;SDS011;2411;47.060;15.064;2024-03-02T14:42:01;6.00;;;2.23;;
4794;SDS011;2411;47.060;15.064;2024-03-02T14:44:28;1.83;;;1.67;;
4794;SDS011;2411;47.060;15.064;2024-03-02T14:46:55;7.13;;;5.40;;
4794;SDS011;2411;47.060;15.064;2024-03-02T14:49:25;9.20;;;5.00;;
4794;SDS011;2411;47.060;15.064;2024-03-02T14:51:53;9.47;;;5.67;;
4794;SDS011;2411;47.060;15.064;2024-03-02T14:54:20;9.17;;;5.43;;
4794;SDS011;2411;47.060;15.064;2024-03-02T14:56:47;10.17;;;5.97;;
4794;SDS011;2411;47.060;15.064;2024-03-02T14:59:16;14.27;;;7.50;;
4794;SDS011;2411;47.060;15.064;2024-03-02T15:01:43;7.50;;;6.67;;
4794;SDS011;2411;47.060;15.064;2024-03-02T15:04:11;8.27;;;6.07;;